Flight Track Log - Related Links

Times and Time Zones

All times are in EDT time to prevent confusion due to time zone crossing. See the N128CL flight status page for this flight to view local times or setup timezone preferences in your user account.

Time Position Orientation Groundspeed Altitude Reporting Facility
EDT Latitude Longitude Course Direction KTS MPH feet Rate Location/Type
Fri 04:16:15 PM 32.7109 -80.0049 352° North  Level FlightAware Approximate
Fri 04:17:15 PM 32.7506 -80.0115 352° North  Level FlightAware Approximate
Fri 04:18:15 PM 32.7903 -80.0181 352° North  Level FlightAware Approximate
Fri 04:19:15 PM 32.8299 -80.0246 352° North  Level FlightAware Approximate
Fri 04:20:15 PM 32.8684 -80.0219 352° North  Level FlightAware Approximate
Fri 04:21:15 PM 32.9080 -80.0286 352° North  Level FlightAware Approximate
Fri 04:22:15 PM 32.9477 -80.0354 352° North  Level FlightAware Approximate
Fri 04:23:15 PM 32.9841 -80.0500 352° North  Level FlightAware Approximate
Fri 04:24:15 PM 33.0239 -80.0541 352° North  Level FlightAware Approximate
Fri 04:25:15 PM 33.0636 -80.0608 352° North  Level FlightAware Approximate
Fri 04:26:15 PM 33.1061 -80.0679 352° North  Level FlightAware Approximate
Fri 04:27:15 PM 33.1487 -80.0751 352° North  Level FlightAware Approximate
Fri 04:28:15 PM 33.1913 -80.0823 352° North  Level FlightAware Approximate
Fri 04:29:15 PM 33.2339 -80.0895 352° North  Level FlightAware Approximate
Fri 04:30:15 PM 33.2765 -80.0966 352° North  Level FlightAware Approximate
Fri 04:31:15 PM 33.3190 -80.1038 352° North  Level FlightAware Approximate
Fri 04:32:15 PM 33.3616 -80.1110 352° North  Level FlightAware Approximate
Fri 04:33:15 PM 33.4039 -80.1201 352° North  Level FlightAware Approximate
Fri 04:34:15 PM 33.4465 -80.1273 352° North  Level FlightAware Approximate
Fri 04:35:15 PM 33.4890 -80.1344 352° North  Level FlightAware Approximate
Fri 04:36:15 PM 33.5316 -80.1416 352° North  Level FlightAware Approximate
Fri 04:37:15 PM 33.5742 -80.1488 352° North  Level FlightAware Approximate
Fri 04:38:15 PM 33.6168 -80.1560 352° North  Level FlightAware Approximate
Fri 04:39:15 PM 33.6593 -80.1632 352° North  Level FlightAware Approximate
Fri 04:40:15 PM 33.7019 -80.1705 352° North  Level FlightAware Approximate
Fri 04:41:15 PM 33.7445 -80.1777 352° North  Level FlightAware Approximate
Fri 04:42:15 PM 33.7870 -80.1849 352° North  Level FlightAware Approximate
Fri 04:43:15 PM 33.8296 -80.1922 352° North  Level FlightAware Approximate
Fri 04:44:15 PM 33.8722 -80.1994 352° North  Level FlightAware Approximate
Fri 04:45:15 PM 33.9147 -80.2067 352° North  Level FlightAware Approximate
Fri 04:46:15 PM 33.9573 -80.2139 352° North  Level FlightAware Approximate
Fri 04:47:15 PM 33.9999 -80.2212 352° North  Level FlightAware Approximate
Fri 04:48:15 PM 34.0425 -80.2285 352° North  Level FlightAware Approximate
Fri 04:49:15 PM 34.0850 -80.2358 352° North  Level FlightAware Approximate
Fri 04:50:15 PM 34.1276 -80.2431 352° North  Level FlightAware Approximate
Fri 04:51:15 PM 34.1702 -80.2504 352° North  Level FlightAware Approximate
Fri 04:52:15 PM 34.2133 -80.2578 352° North  Level FlightAware Approximate
Fri 04:53:15 PM 34.2565 -80.2652 352° North  Level FlightAware Approximate
Fri 04:54:15 PM 34.2996 -80.2726 352° North  Level FlightAware Approximate
Fri 04:55:15 PM 34.3428 -80.2800 352° North  Level FlightAware Approximate
Fri 04:56:15 PM 34.3859 -80.2875 352° North  Level FlightAware Approximate
Fri 04:57:15 PM 34.4291 -80.2949 352° North  Level FlightAware Approximate
Fri 04:58:53 PM 34.5686 -80.3181 349° North 172 198 6,100  Level Atlanta Center
Fri 04:59:54 PM 34.6147 -80.3286 353° North 163 188 6,000 -52 Descending Atlanta Center
Fri 05:00:49 PM 34.6544 -80.3344 351° North 161 185 6,000  Level Atlanta Center
Fri 05:01:56 PM 34.7069 -80.3447 350° North 160 184 6,000  Level Atlanta Center
Fri 05:02:51 PM 34.7450 -80.3531 355° North 161 185 6,000  Level Atlanta Center
Fri 05:03:52 PM 34.7931 -80.3586 348° North 161 185 6,000 -49 Level Atlanta Center
Fri 05:04:53 PM 34.8350 -80.3694 350° North 163 188 5,900 -295 Descending Atlanta Center
Fri 05:05:54 PM 34.8833 -80.3800 353° North 172 198 5,400 -469 Descending Atlanta Center
Fri 05:07:01 PM 34.9378 -80.3878 352° North 178 205 4,900 -448 Descending Atlanta Center
Fri 05:08:08 PM 34.9944 -80.3978 348° North 175 201 4,400 -443 Descending Atlanta Center
Fri 05:09:03 PM 35.0367 -80.4089 352° North 174 200 4,000 -205 Descending Atlanta Center
Fri 05:10:05 PM 35.0828 -80.4169 354° North 163 188 4,000  Level Atlanta Center
Fri 05:11:05 PM 35.1289 -80.4225 351° North 162 186 4,000  Level Atlanta Center
Fri 05:12:05 PM 35.1728 -80.4308 354° North 158 182 4,000  Level Atlanta Center
Fri 05:13:00 PM 35.2147 -80.4364 350° North 159 183 4,000  Level Atlanta Center
Fri 05:14:01 PM 35.2547 -80.4450 345° North 151 174 4,000  Level Atlanta Center
Fri 05:15:02 PM 35.2967 -80.4583 354° North 156 180 4,000  Level Atlanta Center
Fri 05:16:03 PM 35.3408 -80.4642 352° North 159 183 4,000  Level Atlanta Center
Fri 05:17:04 PM 35.3869 -80.4722 349° North 162 186 4,000  Level Atlanta Center
Fri 05:18:04 PM 35.4331 -80.4831 349° North 162 186 4,000  Level Atlanta Center

Login

Don't have an account? Register now (free) for customized features, flight alerts, and more!